KFSM/FSM METAR and TAF weather

Enter ICAO airport designator
Station Type Date Time Source
KFSM METAR 2021/01/27 14:09 UTC NOAA

KFSM 271409Z 26008KT 6SM BR FEW009 BKN014 OVC021 02/01 A3022 RMK AO2 T00220011


Station Type Date Time Source
KFSM Decoded METAR 2021/01/27 14:09 UTC NOAA

FORT SMITH REGIONAL AIRPORT, AR, United States (KFSM) 35-20N 94-22W 140M
Jan 27, 2021 - 09:09 AM EST / 2021.01.27 1409 UTC
Wind: from the W (260 degrees) at 9 MPH (8 KT):0
Visibility: 6 mile(s):0
Sky conditions: overcast
Weather: mist
Temperature: 36.0 F (2.2 C)
Dew Point: 34.0 F (1.1 C)
Relative Humidity: 92%
Pressure (altimeter): 30.22 in. Hg (1023 hPa)
ob: KFSM 271409Z 26008KT 6SM BR FEW009 BKN014 OVC021 02/01 A3022 RMK AO2 T00220011
cycle: 14

Station Type Date Time Source
KFSM TAF 2021/01/27 12:22 UTC NOAA

TAF KFSM 271120Z 2712/2812 VRB04KT P6SM BKN025
FM271400 31007KT P6SM BKN015
FM271900 32011KT P6SM BKN025
FM280100 33010KT P6SM SCT026
FM280300 VRB04KT P6SM FEW080

Example: see airport list